sensor_id;sensor_type;location;lat;lon;timestamp;temperature;humidity
19279;DHT22;9773;47.062;15.446;2022-12-18T00:02:04;-0.80;99.90
19279;DHT22;9773;47.062;15.446;2022-12-18T00:04:30;-0.70;99.90
19279;DHT22;9773;47.062;15.446;2022-12-18T00:06:56;-0.70;99.90
19279;DHT22;9773;47.062;15.446;2022-12-18T00:09:22;-0.60;99.90
19279;DHT22;9773;47.062;15.446;2022-12-18T00:11:48;-0.60;99.90
19279;DHT22;9773;47.062;15.446;2022-12-18T00:14:14;-0.70;99.90
19279;DHT22;9773;47.062;15.446;2022-12-18T00:16:40;-0.60;99.90
19279;DHT22;9773;47.062;15.446;2022-12-18T00:19:06;-0.60;99.90
19279;DHT22;9773;47.062;15.446;2022-12-18T00:21:33;-0.70;99.90
19279;DHT22;9773;47.062;15.446;2022-12-18T00:24:00;-0.70;99.90
19279;DHT22;9773;47.062;15.446;2022-12-18T00:26:31;-0.80;99.90
19279;DHT22;9773;47.062;15.446;2022-12-18T00:29:05;-0.80;99.90
19279;DHT22;9773;47.062;15.446;2022-12-18T00:31:32;-0.90;99.90
19279;DHT22;9773;47.062;15.446;2022-12-18T00:33:59;-1.00;99.90
19279;DHT22;9773;47.062;15.446;2022-12-18T00:36:27;-1.10;99.90
19279;DHT22;9773;47.062;15.446;2022-12-18T00:38:54;-1.20;99.90
19279;DHT22;9773;47.062;15.446;2022-12-18T00:41:21;-1.20;99.90
19279;DHT22;9773;47.062;15.446;2022-12-18T00:44:08;-1.20;99.90
19279;DHT22;9773;47.062;15.446;2022-12-18T00:46:34;-1.40;99.90
19279;DHT22;9773;47.062;15.446;2022-12-18T00:49:01;-1.60;99.90
19279;DHT22;9773;47.062;15.446;2022-12-18T00:51:27;-1.70;99.90
19279;DHT22;9773;47.062;15.446;2022-12-18T00:53:53;-1.80;99.90
19279;DHT22;9773;47.062;15.446;2022-12-18T00:56:18;-1.80;99.90
19279;DHT22;9773;47.062;15.446;2022-12-18T00:58:44;-1.80;99.90
19279;DHT22;9773;47.062;15.446;2022-12-18T01:01:10;-1.70;99.90
19279;DHT22;9773;47.062;15.446;2022-12-18T01:03:36;-1.60;99.90
19279;DHT22;9773;47.062;15.446;2022-12-18T01:06:11;-1.60;99.90
19279;DHT22;9773;47.062;15.446;2022-12-18T01:08:38;-1.70;99.90
19279;DHT22;9773;47.062;15.446;2022-12-18T01:11:09;-1.70;99.90
19279;DHT22;9773;47.062;15.446;2022-12-18T01:13:35;-1.60;99.90
19279;DHT22;9773;47.062;15.446;2022-12-18T01:16:01;-1.60;99.90
19279;DHT22;9773;47.062;15.446;2022-12-18T01:18:27;-1.60;99.90
19279;DHT22;9773;47.062;15.446;2022-12-18T01:20:53;-1.70;99.90
19279;DHT22;9773;47.062;15.446;2022-12-18T01:23:19;-1.60;99.90
19279;DHT22;9773;47.062;15.446;2022-12-18T01:25:44;-1.60;99.90
19279;DHT22;9773;47.062;15.446;2022-12-18T01:28:10;-1.70;99.90
19279;DHT22;9773;47.062;15.446;2022-12-18T01:30:36;-1.70;99.90
19279;DHT22;9773;47.062;15.446;2022-12-18T01:33:04;-1.80;99.90
19279;DHT22;9773;47.062;15.446;2022-12-18T01:35:30;-1.80;99.90
19279;DHT22;9773;47.062;15.446;2022-12-18T01:37:56;-1.80;99.90
19279;DHT22;9773;47.062;15.446;2022-12-18T01:40:22;-1.90;99.90
19279;DHT22;9773;47.062;15.446;2022-12-18T01:42:52;-1.90;99.90
19279;DHT22;9773;47.062;15.446;2022-12-18T01:47:50;-1.90;99.90
19279;DHT22;9773;47.062;15.446;2022-12-18T01:52:56;-1.90;99.90
19279;DHT22;9773;47.062;15.446;2022-12-18T01:55:28;-1.90;99.90
19279;DHT22;9773;47.062;15.446;2022-12-18T01:57:56;-1.70;99.90
19279;DHT22;9773;47.062;15.446;2022-12-18T02:00:24;-1.70;99.90
19279;DHT22;9773;47.062;15.446;2022-12-18T02:02:50;-1.60;99.90
19279;DHT22;9773;47.062;15.446;2022-12-18T02:08:10;-1.50;99.90
19279;DHT22;9773;47.062;15.446;2022-12-18T02:13:48;-1.50;99.90
19279;DHT22;9773;47.062;15.446;2022-12-18T02:16:25;-1.60;99.90
19279;DHT22;9773;47.062;15.446;2022-12-18T02:18:59;-1.60;99.90
19279;DHT22;9773;47.062;15.446;2022-12-18T02:21:46;-1.60;99.90
19279;DHT22;9773;47.062;15.446;2022-12-18T02:24:38;-1.60;99.90
19279;DHT22;9773;47.062;15.446;2022-12-18T02:27:09;-1.60;99.90
19279;DHT22;9773;47.062;15.446;2022-12-18T02:29:51;-1.70;99.90
19279;DHT22;9773;47.062;15.446;2022-12-18T02:32:22;-1.70;99.90
19279;DHT22;9773;47.062;15.446;2022-12-18T02:34:51;-1.70;99.90
19279;DHT22;9773;47.062;15.446;2022-12-18T02:37:18;-1.70;99.90
19279;DHT22;9773;47.062;15.446;2022-12-18T02:39:47;-1.70;99.90
19279;DHT22;9773;47.062;15.446;2022-12-18T02:42:14;-1.80;99.90
19279;DHT22;9773;47.062;15.446;2022-12-18T02:44:44;-1.90;99.90
19279;DHT22;9773;47.062;15.446;2022-12-18T02:47:12;-1.90;99.90
19279;DHT22;9773;47.062;15.446;2022-12-18T02:49:54;-1.80;99.90
19279;DHT22;9773;47.062;15.446;2022-12-18T02:57:55;-1.80;99.90
19279;DHT22;9773;47.062;15.446;2022-12-18T03:03:03;-1.90;99.90
19279;DHT22;9773;47.062;15.446;2022-12-18T03:05:43;-1.90;99.90
19279;DHT22;9773;47.062;15.446;2022-12-18T03:08:19;-1.90;99.90
19279;DHT22;9773;47.062;15.446;2022-12-18T03:11:02;-2.00;99.90
19279;DHT22;9773;47.062;15.446;2022-12-18T03:13:54;-1.90;99.90
19279;DHT22;9773;47.062;15.446;2022-12-18T03:16:25;-1.90;99.90
19279;DHT22;9773;47.062;15.446;2022-12-18T03:18:59;-2.30;99.90
19279;DHT22;9773;47.062;15.446;2022-12-18T03:21:33;-2.30;99.90
19279;DHT22;9773;47.062;15.446;2022-12-18T03:24:06;-2.20;99.90
19279;DHT22;9773;47.062;15.446;2022-12-18T03:26:35;-2.20;99.90
19279;DHT22;9773;47.062;15.446;2022-12-18T03:29:07;-2.20;99.90
19279;DHT22;9773;47.062;15.446;2022-12-18T03:31:39;-2.20;99.90
19279;DHT22;9773;47.062;15.446;2022-12-18T03:34:12;-2.20;99.90
19279;DHT22;9773;47.062;15.446;2022-12-18T03:36:38;-2.20;99.90
19279;DHT22;9773;47.062;15.446;2022-12-18T03:39:04;-2.20;99.90
19279;DHT22;9773;47.062;15.446;2022-12-18T03:42:15;-2.20;99.90
19279;DHT22;9773;47.062;15.446;2022-12-18T03:45:02;-2.50;99.90
19279;DHT22;9773;47.062;15.446;2022-12-18T03:50:11;-2.70;99.90
19279;DHT22;9773;47.062;15.446;2022-12-18T03:53:00;-2.70;99.90
19279;DHT22;9773;47.062;15.446;2022-12-18T03:55:30;-2.90;99.90
19279;DHT22;9773;47.062;15.446;2022-12-18T03:58:00;-2.80;99.90
19279;DHT22;9773;47.062;15.446;2022-12-18T04:00:28;-2.80;99.90
19279;DHT22;9773;47.062;15.446;2022-12-18T04:02:57;-2.80;99.90
19279;DHT22;9773;47.062;15.446;2022-12-18T04:05:25;-2.70;99.90
19279;DHT22;9773;47.062;15.446;2022-12-18T04:07:53;-2.70;99.90
19279;DHT22;9773;47.062;15.446;2022-12-18T04:10:19;-2.80;99.90
19279;DHT22;9773;47.062;15.446;2022-12-18T04:12:45;-2.70;99.90
19279;DHT22;9773;47.062;15.446;2022-12-18T04:15:11;-2.60;99.90
19279;DHT22;9773;47.062;15.446;2022-12-18T04:17:38;-2.50;99.90
19279;DHT22;9773;47.062;15.446;2022-12-18T04:20:04;-2.50;99.90
19279;DHT22;9773;47.062;15.446;2022-12-18T04:22:30;-2.20;99.90
19279;DHT22;9773;47.062;15.446;2022-12-18T04:24:55;-2.20;99.90
19279;DHT22;9773;47.062;15.446;2022-12-18T04:27:21;-2.20;99.90
19279;DHT22;9773;47.062;15.446;2022-12-18T04:29:47;-2.20;99.90
19279;DHT22;9773;47.062;15.446;2022-12-18T04:32:13;-2.10;99.90
19279;DHT22;9773;47.062;15.446;2022-12-18T04:34:39;-2.10;99.90
19279;DHT22;9773;47.062;15.446;2022-12-18T04:37:04;-2.10;99.90
19279;DHT22;9773;47.062;15.446;2022-12-18T04:39:30;-2.20;99.90
19279;DHT22;9773;47.062;15.446;2022-12-18T04:41:56;-2.10;99.90
19279;DHT22;9773;47.062;15.446;2022-12-18T04:44:25;-2.20;99.90
19279;DHT22;9773;47.062;15.446;2022-12-18T04:46:50;-2.20;99.90
19279;DHT22;9773;47.062;15.446;2022-12-18T04:49:16;-2.20;99.90
19279;DHT22;9773;47.062;15.446;2022-12-18T04:51:42;-2.30;99.90
19279;DHT22;9773;47.062;15.446;2022-12-18T04:54:08;-2.40;99.90
19279;DHT22;9773;47.062;15.446;2022-12-18T04:56:34;-2.40;99.90
19279;DHT22;9773;47.062;15.446;2022-12-18T04:59:00;-2.40;99.90
19279;DHT22;9773;47.062;15.446;2022-12-18T05:01:27;-2.40;99.90
19279;DHT22;9773;47.062;15.446;2022-12-18T05:03:52;-2.40;99.90
19279;DHT22;9773;47.062;15.446;2022-12-18T05:06:18;-2.30;99.90
19279;DHT22;9773;47.062;15.446;2022-12-18T05:08:44;-2.30;99.90
19279;DHT22;9773;47.062;15.446;2022-12-18T05:11:12;-2.30;99.90
19279;DHT22;9773;47.062;15.446;2022-12-18T05:13:40;-2.30;99.90
19279;DHT22;9773;47.062;15.446;2022-12-18T05:16:06;-2.40;99.90
19279;DHT22;9773;47.062;15.446;2022-12-18T05:18:32;-2.40;99.90
19279;DHT22;9773;47.062;15.446;2022-12-18T05:20:58;-2.40;99.90
19279;DHT22;9773;47.062;15.446;2022-12-18T05:23:24;-2.30;99.90
19279;DHT22;9773;47.062;15.446;2022-12-18T05:25:55;-2.30;99.90
19279;DHT22;9773;47.062;15.446;2022-12-18T05:28:21;-2.30;99.90
19279;DHT22;9773;47.062;15.446;2022-12-18T05:30:58;-2.30;99.90
19279;DHT22;9773;47.062;15.446;2022-12-18T05:33:26;-2.20;99.90
19279;DHT22;9773;47.062;15.446;2022-12-18T05:35:59;-2.20;99.90
19279;DHT22;9773;47.062;15.446;2022-12-18T05:38:27;-2.20;99.90
19279;DHT22;9773;47.062;15.446;2022-12-18T05:40:53;-2.10;99.90
19279;DHT22;9773;47.062;15.446;2022-12-18T05:43:20;-2.20;99.90
19279;DHT22;9773;47.062;15.446;2022-12-18T05:45:47;-2.20;99.90
19279;DHT22;9773;47.062;15.446;2022-12-18T05:48:14;-2.30;99.90
19279;DHT22;9773;47.062;15.446;2022-12-18T05:50:41;-2.30;99.90
19279;DHT22;9773;47.062;15.446;2022-12-18T05:53:08;-2.30;99.90
19279;DHT22;9773;47.062;15.446;2022-12-18T05:55:35;-2.30;99.90
19279;DHT22;9773;47.062;15.446;2022-12-18T05:58:02;-2.30;99.90
19279;DHT22;9773;47.062;15.446;2022-12-18T06:00:28;-2.40;99.90
19279;DHT22;9773;47.062;15.446;2022-12-18T06:02:54;-2.40;99.90
19279;DHT22;9773;47.062;15.446;2022-12-18T06:05:20;-2.50;99.90
19279;DHT22;9773;47.062;15.446;2022-12-18T06:07:46;-2.40;99.90
19279;DHT22;9773;47.062;15.446;2022-12-18T06:10:11;-2.50;99.90
19279;DHT22;9773;47.062;15.446;2022-12-18T06:12:37;-2.50;99.90
19279;DHT22;9773;47.062;15.446;2022-12-18T06:15:03;-2.50;99.90
19279;DHT22;9773;47.062;15.446;2022-12-18T06:17:30;-2.40;99.90
19279;DHT22;9773;47.062;15.446;2022-12-18T06:19:56;-2.40;99.90
19279;DHT22;9773;47.062;15.446;2022-12-18T06:22:22;-2.30;99.90
19279;DHT22;9773;47.062;15.446;2022-12-18T06:24:48;-2.30;99.90
19279;DHT22;9773;47.062;15.446;2022-12-18T06:27:14;-2.30;99.90
19279;DHT22;9773;47.062;15.446;2022-12-18T06:29:40;-2.30;99.90
19279;DHT22;9773;47.062;15.446;2022-12-18T06:32:06;-2.40;99.90
19279;DHT22;9773;47.062;15.446;2022-12-18T06:34:33;-2.40;99.90
19279;DHT22;9773;47.062;15.446;2022-12-18T06:36:59;-2.20;99.90
19279;DHT22;9773;47.062;15.446;2022-12-18T06:39:27;-2.30;99.90
19279;DHT22;9773;47.062;15.446;2022-12-18T06:41:53;-2.30;99.90
19279;DHT22;9773;47.062;15.446;2022-12-18T06:44:19;-2.20;99.90
19279;DHT22;9773;47.062;15.446;2022-12-18T06:46:45;-2.20;99.90
19279;DHT22;9773;47.062;15.446;2022-12-18T06:49:10;-2.20;99.90
19279;DHT22;9773;47.062;15.446;2022-12-18T06:51:36;-2.20;99.90
19279;DHT22;9773;47.062;15.446;2022-12-18T06:54:02;-2.20;99.90
19279;DHT22;9773;47.062;15.446;2022-12-18T06:56:28;-2.30;99.90
19279;DHT22;9773;47.062;15.446;2022-12-18T06:58:54;-2.40;99.90
19279;DHT22;9773;47.062;15.446;2022-12-18T07:01:20;-2.40;99.90
19279;DHT22;9773;47.062;15.446;2022-12-18T07:03:46;-2.30;99.90
19279;DHT22;9773;47.062;15.446;2022-12-18T07:06:14;-2.20;99.90
19279;DHT22;9773;47.062;15.446;2022-12-18T07:08:40;-2.20;99.90
19279;DHT22;9773;47.062;15.446;2022-12-18T07:11:06;-2.10;99.90
19279;DHT22;9773;47.062;15.446;2022-12-18T07:13:32;-2.00;99.90
19279;DHT22;9773;47.062;15.446;2022-12-18T07:16:30;-2.00;99.90
19279;DHT22;9773;47.062;15.446;2022-12-18T07:18:56;-2.00;99.90
19279;DHT22;9773;47.062;15.446;2022-12-18T07:21:23;-1.80;99.90
19279;DHT22;9773;47.062;15.446;2022-12-18T07:23:49;-1.70;99.90
19279;DHT22;9773;47.062;15.446;2022-12-18T07:26:18;-1.80;99.90
19279;DHT22;9773;47.062;15.446;2022-12-18T07:28:46;-1.80;99.90
19279;DHT22;9773;47.062;15.446;2022-12-18T07:31:15;-1.80;99.90
19279;DHT22;9773;47.062;15.446;2022-12-18T07:33:41;-1.80;99.90
19279;DHT22;9773;47.062;15.446;2022-12-18T07:36:08;-1.70;99.90
19279;DHT22;9773;47.062;15.446;2022-12-18T07:38:35;-1.70;99.90
19279;DHT22;9773;47.062;15.446;2022-12-18T07:41:02;-1.70;99.90
19279;DHT22;9773;47.062;15.446;2022-12-18T07:43:28;-1.60;99.90
19279;DHT22;9773;47.062;15.446;2022-12-18T07:45:54;-1.50;99.90
19279;DHT22;9773;47.062;15.446;2022-12-18T07:48:20;-1.40;99.90
19279;DHT22;9773;47.062;15.446;2022-12-18T07:50:45;-1.50;99.90
19279;DHT22;9773;47.062;15.446;2022-12-18T07:53:11;-1.40;99.90
19279;DHT22;9773;47.062;15.446;2022-12-18T07:55:37;-1.60;99.90
19279;DHT22;9773;47.062;15.446;2022-12-18T07:58:04;-1.50;99.90
19279;DHT22;9773;47.062;15.446;2022-12-18T08:00:30;-1.50;99.90
19279;DHT22;9773;47.062;15.446;2022-12-18T08:02:56;-1.40;99.90
19279;DHT22;9773;47.062;15.446;2022-12-18T08:05:22;-1.40;99.90
19279;DHT22;9773;47.062;15.446;2022-12-18T08:07:48;-1.40;99.90
19279;DHT22;9773;47.062;15.446;2022-12-18T08:10:14;-1.30;99.90
19279;DHT22;9773;47.062;15.446;2022-12-18T08:12:40;-1.40;99.90
19279;DHT22;9773;47.062;15.446;2022-12-18T08:15:06;-1.20;99.90
19279;DHT22;9773;47.062;15.446;2022-12-18T08:17:32;-1.20;99.90
19279;DHT22;9773;47.062;15.446;2022-12-18T08:19:58;-1.10;99.90
19279;DHT22;9773;47.062;15.446;2022-12-18T08:22:23;-1.00;99.90
19279;DHT22;9773;47.062;15.446;2022-12-18T08:24:49;-0.90;99.90
19279;DHT22;9773;47.062;15.446;2022-12-18T08:27:15;-0.80;99.90
19279;DHT22;9773;47.062;15.446;2022-12-18T08:29:41;-0.80;99.90
19279;DHT22;9773;47.062;15.446;2022-12-18T08:32:07;-0.70;99.90
19279;DHT22;9773;47.062;15.446;2022-12-18T08:34:32;-0.70;99.90
19279;DHT22;9773;47.062;15.446;2022-12-18T08:36:58;-0.80;99.90
19279;DHT22;9773;47.062;15.446;2022-12-18T08:39:24;-0.80;99.90
19279;DHT22;9773;47.062;15.446;2022-12-18T08:41:50;-0.90;99.90
19279;DHT22;9773;47.062;15.446;2022-12-18T08:44:34;-0.90;99.90
19279;DHT22;9773;47.062;15.446;2022-12-18T08:47:03;-1.00;99.90
19279;DHT22;9773;47.062;15.446;2022-12-18T08:49:29;-1.00;99.90
19279;DHT22;9773;47.062;15.446;2022-12-18T08:51:56;-1.00;99.90
19279;DHT22;9773;47.062;15.446;2022-12-18T08:54:25;-1.00;99.90
19279;DHT22;9773;47.062;15.446;2022-12-18T08:56:51;-1.00;99.90
19279;DHT22;9773;47.062;15.446;2022-12-18T08:59:18;-1.00;99.90
19279;DHT22;9773;47.062;15.446;2022-12-18T09:01:45;-1.00;99.90
19279;DHT22;9773;47.062;15.446;2022-12-18T09:04:11;-1.00;99.90
19279;DHT22;9773;47.062;15.446;2022-12-18T09:06:37;-1.00;99.90
19279;DHT22;9773;47.062;15.446;2022-12-18T09:09:04;-1.00;99.90
19279;DHT22;9773;47.062;15.446;2022-12-18T09:11:30;-0.90;99.90
19279;DHT22;9773;47.062;15.446;2022-12-18T09:13:57;-0.90;99.90
19279;DHT22;9773;47.062;15.446;2022-12-18T09:16:25;-0.80;99.90
19279;DHT22;9773;47.062;15.446;2022-12-18T09:18:51;-0.70;99.90
19279;DHT22;9773;47.062;15.446;2022-12-18T09:21:19;-0.70;99.90
19279;DHT22;9773;47.062;15.446;2022-12-18T09:23:49;-0.60;99.90
19279;DHT22;9773;47.062;15.446;2022-12-18T09:26:15;-0.60;99.90
19279;DHT22;9773;47.062;15.446;2022-12-18T09:28:41;-0.60;99.90
19279;DHT22;9773;47.062;15.446;2022-12-18T09:31:08;-0.60;99.90
19279;DHT22;9773;47.062;15.446;2022-12-18T09:33:38;-0.60;99.90
19279;DHT22;9773;47.062;15.446;2022-12-18T09:36:05;-0.60;99.90
19279;DHT22;9773;47.062;15.446;2022-12-18T09:38:33;-0.50;99.90
19279;DHT22;9773;47.062;15.446;2022-12-18T09:43:54;-0.40;99.90
19279;DHT22;9773;47.062;15.446;2022-12-18T09:46:29;-0.40;99.90
19279;DHT22;9773;47.062;15.446;2022-12-18T09:49:03;-0.30;99.90
19279;DHT22;9773;47.062;15.446;2022-12-18T09:51:58;-0.30;99.90
19279;DHT22;9773;47.062;15.446;2022-12-18T09:54:38;-0.30;99.90
19279;DHT22;9773;47.062;15.446;2022-12-18T09:57:04;-0.20;99.90
19279;DHT22;9773;47.062;15.446;2022-12-18T09:59:37;-0.20;99.90
19279;DHT22;9773;47.062;15.446;2022-12-18T10:02:22;0.00;99.90
19279;DHT22;9773;47.062;15.446;2022-12-18T10:05:03;0.20;99.90
19279;DHT22;9773;47.062;15.446;2022-12-18T10:10:39;0.40;99.90
19279;DHT22;9773;47.062;15.446;2022-12-18T10:16:13;0.70;99.90
19279;DHT22;9773;47.062;15.446;2022-12-18T10:19:02;0.80;99.90
19279;DHT22;9773;47.062;15.446;2022-12-18T10:21:47;1.00;99.90
19279;DHT22;9773;47.062;15.446;2022-12-18T10:24:41;1.20;99.90
19279;DHT22;9773;47.062;15.446;2022-12-18T10:27:17;1.30;99.90
19279;DHT22;9773;47.062;15.446;2022-12-18T10:29:44;1.40;99.90
19279;DHT22;9773;47.062;15.446;2022-12-18T10:32:20;1.50;99.90
19279;DHT22;9773;47.062;15.446;2022-12-18T10:34:51;1.50;99.90
19279;DHT22;9773;47.062;15.446;2022-12-18T10:37:19;1.60;99.90
19279;DHT22;9773;47.062;15.446;2022-12-18T10:40:04;1.40;99.90
19279;DHT22;9773;47.062;15.446;2022-12-18T10:42:31;1.60;99.90
19279;DHT22;9773;47.062;15.446;2022-12-18T10:45:16;1.50;99.90
19279;DHT22;9773;47.062;15.446;2022-12-18T10:47:47;1.60;99.90
19279;DHT22;9773;47.062;15.446;2022-12-18T10:50:34;1.50;99.90
19279;DHT22;9773;47.062;15.446;2022-12-18T10:53:03;1.50;99.90
19279;DHT22;9773;47.062;15.446;2022-12-18T10:55:35;1.60;99.90
19279;DHT22;9773;47.062;15.446;2022-12-18T11:00:39;1.70;99.90
19279;DHT22;9773;47.062;15.446;2022-12-18T11:03:32;1.70;99.90
19279;DHT22;9773;47.062;15.446;2022-12-18T11:06:07;1.70;99.90
19279;DHT22;9773;47.062;15.446;2022-12-18T11:08:33;1.60;99.90
19279;DHT22;9773;47.062;15.446;2022-12-18T11:10:59;1.60;99.90
19279;DHT22;9773;47.062;15.446;2022-12-18T11:13:26;1.60;99.90
19279;DHT22;9773;47.062;15.446;2022-12-18T11:15:53;1.50;99.90
19279;DHT22;9773;47.062;15.446;2022-12-18T11:21:06;1.30;99.90
19279;DHT22;9773;47.062;15.446;2022-12-18T11:23:34;1.30;99.90
19279;DHT22;9773;47.062;15.446;2022-12-18T11:26:03;1.20;99.90
19279;DHT22;9773;47.062;15.446;2022-12-18T11:28:42;1.20;99.90
19279;DHT22;9773;47.062;15.446;2022-12-18T11:33:40;1.10;99.90
19279;DHT22;9773;47.062;15.446;2022-12-18T11:36:08;1.10;99.90
19279;DHT22;9773;47.062;15.446;2022-12-18T11:38:39;1.20;99.90
19279;DHT22;9773;47.062;15.446;2022-12-18T11:41:26;1.20;99.90
19279;DHT22;9773;47.062;15.446;2022-12-18T11:44:28;1.20;99.90
19279;DHT22;9773;47.062;15.446;2022-12-18T11:49:42;1.20;99.90
19279;DHT22;9773;47.062;15.446;2022-12-18T11:54:58;1.10;99.90
19279;DHT22;9773;47.062;15.446;2022-12-18T12:00:12;1.10;99.90
19279;DHT22;9773;47.062;15.446;2022-12-18T12:08:39;1.00;99.90
19279;DHT22;9773;47.062;15.446;2022-12-18T12:11:22;0.90;99.90
19279;DHT22;9773;47.062;15.446;2022-12-18T12:31:20;0.60;99.90
19279;DHT22;9773;47.062;15.446;2022-12-18T12:38:57;0.50;99.90
19279;DHT22;9773;47.062;15.446;2022-12-18T12:41:26;0.50;99.90
19279;DHT22;9773;47.062;15.446;2022-12-18T12:44:19;0.60;99.90
19279;DHT22;9773;47.062;15.446;2022-12-18T12:46:46;0.50;99.90
19279;DHT22;9773;47.062;15.446;2022-12-18T12:49:18;0.40;99.90
19279;DHT22;9773;47.062;15.446;2022-12-18T12:51:50;0.50;99.90
19279;DHT22;9773;47.062;15.446;2022-12-18T12:54:23;0.50;99.90
19279;DHT22;9773;47.062;15.446;2022-12-18T12:57:21;0.50;99.90
19279;DHT22;9773;47.062;15.446;2022-12-18T13:00:10;0.60;99.90
19279;DHT22;9773;47.062;15.446;2022-12-18T13:02:58;0.60;99.90
19279;DHT22;9773;47.062;15.446;2022-12-18T13:08:11;0.60;99.90
19279;DHT22;9773;47.062;15.446;2022-12-18T13:10:42;0.50;99.90
19279;DHT22;9773;47.062;15.446;2022-12-18T13:13:10;0.60;99.90
19279;DHT22;9773;47.062;15.446;2022-12-18T13:15:43;0.50;99.90
19279;DHT22;9773;47.062;15.446;2022-12-18T13:20:40;0.50;99.90
19279;DHT22;9773;47.062;15.446;2022-12-18T13:23:31;0.50;99.90
19279;DHT22;9773;47.062;15.446;2022-12-18T13:31:02;0.20;99.90
19279;DHT22;9773;47.062;15.446;2022-12-18T13:38:45;-0.10;99.90
19279;DHT22;9773;47.062;15.446;2022-12-18T13:46:47;-0.10;99.90
19279;DHT22;9773;47.062;15.446;2022-12-18T13:51:44;-0.10;99.90
19279;DHT22;9773;47.062;15.446;2022-12-18T13:54:19;-0.30;99.90
19279;DHT22;9773;47.062;15.446;2022-12-18T13:56:47;-0.30;99.90
19279;DHT22;9773;47.062;15.446;2022-12-18T13:59:25;-0.10;99.90
19279;DHT22;9773;47.062;15.446;2022-12-18T14:01:57;-0.10;99.90
19279;DHT22;9773;47.062;15.446;2022-12-18T14:04:29;-0.10;99.90
19279;DHT22;9773;47.062;15.446;2022-12-18T14:07:07;-0.20;99.90
19279;DHT22;9773;47.062;15.446;2022-12-18T14:09:40;-0.20;99.90
19279;DHT22;9773;47.062;15.446;2022-12-18T14:12:06;-0.20;99.90
19279;DHT22;9773;47.062;15.446;2022-12-18T14:14:53;-0.20;99.90
19279;DHT22;9773;47.062;15.446;2022-12-18T14:17:19;-0.20;99.90
19279;DHT22;9773;47.062;15.446;2022-12-18T14:19:47;-0.20;99.90
19279;DHT22;9773;47.062;15.446;2022-12-18T14:22:19;-0.20;99.90
19279;DHT22;9773;47.062;15.446;2022-12-18T14:24:46;-0.10;99.90
19279;DHT22;9773;47.062;15.446;2022-12-18T14:27:24;-0.10;99.90
19279;DHT22;9773;47.062;15.446;2022-12-18T14:29:50;-0.10;99.90
19279;DHT22;9773;47.062;15.446;2022-12-18T14:32:20;-0.10;99.90
19279;DHT22;9773;47.062;15.446;2022-12-18T14:34:53;-0.20;99.90
19279;DHT22;9773;47.062;15.446;2022-12-18T14:37:26;-0.10;99.90
19279;DHT22;9773;47.062;15.446;2022-12-18T14:40:00;-0.10;99.90
19279;DHT22;9773;47.062;15.446;2022-12-18T14:42:28;-0.10;99.90
19279;DHT22;9773;47.062;15.446;2022-12-18T14:48:00;0.10;99.90
19279;DHT22;9773;47.062;15.446;2022-12-18T14:50:26;0.10;99.90
19279;DHT22;9773;47.062;15.446;2022-12-18T14:52:52;0.10;99.90
19279;DHT22;9773;47.062;15.446;2022-12-18T14:55:19;0.10;99.90
19279;DHT22;9773;47.062;15.446;2022-12-18T14:57:51;0.20;99.90
19279;DHT22;9773;47.062;15.446;2022-12-18T15:00:20;0.20;99.90
19279;DHT22;9773;47.062;15.446;2022-12-18T15:02:56;0.20;99.90
19279;DHT22;9773;47.062;15.446;2022-12-18T15:05:27;0.20;99.90
19279;DHT22;9773;47.062;15.446;2022-12-18T15:07:57;0.30;99.90
19279;DHT22;9773;47.062;15.446;2022-12-18T15:10:30;0.30;99.90
19279;DHT22;9773;47.062;15.446;2022-12-18T15:18:17;0.30;99.90
19279;DHT22;9773;47.062;15.446;2022-12-18T15:20:57;0.30;99.90
19279;DHT22;9773;47.062;15.446;2022-12-18T15:23:48;0.30;99.90
19279;DHT22;9773;47.062;15.446;2022-12-18T15:26:16;0.30;99.90
19279;DHT22;9773;47.062;15.446;2022-12-18T15:28:50;0.30;99.90
19279;DHT22;9773;47.062;15.446;2022-12-18T15:31:21;0.40;99.90
19279;DHT22;9773;47.062;15.446;2022-12-18T15:36:29;0.30;99.90
19279;DHT22;9773;47.062;15.446;2022-12-18T15:38:56;0.20;99.90
19279;DHT22;9773;47.062;15.446;2022-12-18T15:41:26;0.30;99.90
19279;DHT22;9773;47.062;15.446;2022-12-18T15:43:53;0.30;99.90
19279;DHT22;9773;47.062;15.446;2022-12-18T15:46:24;0.20;99.90
19279;DHT22;9773;47.062;15.446;2022-12-18T15:48:54;0.20;99.90
19279;DHT22;9773;47.062;15.446;2022-12-18T15:51:24;0.20;99.90
19279;DHT22;9773;47.062;15.446;2022-12-18T15:53:55;0.20;99.90
19279;DHT22;9773;47.062;15.446;2022-12-18T15:56:22;0.30;99.90
19279;DHT22;9773;47.062;15.446;2022-12-18T15:59:19;0.30;99.90
19279;DHT22;9773;47.062;15.446;2022-12-18T16:01:47;0.30;99.90
19279;DHT22;9773;47.062;15.446;2022-12-18T16:04:16;0.20;99.90
19279;DHT22;9773;47.062;15.446;2022-12-18T16:06:42;0.20;99.90
19279;DHT22;9773;47.062;15.446;2022-12-18T16:09:09;0.20;99.90
19279;DHT22;9773;47.062;15.446;2022-12-18T16:11:36;0.20;99.90
19279;DHT22;9773;47.062;15.446;2022-12-18T16:14:25;0.10;99.90
19279;DHT22;9773;47.062;15.446;2022-12-18T16:17:00;0.10;99.90
19279;DHT22;9773;47.062;15.446;2022-12-18T16:19:27;0.20;99.90
19279;DHT22;9773;47.062;15.446;2022-12-18T16:21:58;0.10;99.90
19279;DHT22;9773;47.062;15.446;2022-12-18T16:24:29;0.00;99.90
19279;DHT22;9773;47.062;15.446;2022-12-18T16:26:57;0.10;99.90
19279;DHT22;9773;47.062;15.446;2022-12-18T16:29:26;0.10;99.90
19279;DHT22;9773;47.062;15.446;2022-12-18T16:31:57;0.00;99.90
19279;DHT22;9773;47.062;15.446;2022-12-18T16:34:31;-0.10;99.90
19279;DHT22;9773;47.062;15.446;2022-12-18T16:37:06;-0.20;99.90
19279;DHT22;9773;47.062;15.446;2022-12-18T16:39:34;-0.40;99.90
19279;DHT22;9773;47.062;15.446;2022-12-18T16:42:06;-0.30;99.90
19279;DHT22;9773;47.062;15.446;2022-12-18T16:44:34;-0.30;99.90
19279;DHT22;9773;47.062;15.446;2022-12-18T16:47:00;-0.30;99.90
19279;DHT22;9773;47.062;15.446;2022-12-18T16:49:28;-0.40;99.90
19279;DHT22;9773;47.062;15.446;2022-12-18T16:51:54;-0.40;99.90
19279;DHT22;9773;47.062;15.446;2022-12-18T16:54:21;-0.30;99.90
19279;DHT22;9773;47.062;15.446;2022-12-18T16:56:47;-0.30;99.90
19279;DHT22;9773;47.062;15.446;2022-12-18T16:59:16;-0.20;99.90
19279;DHT22;9773;47.062;15.446;2022-12-18T17:01:42;-0.20;99.90
19279;DHT22;9773;47.062;15.446;2022-12-18T17:04:08;-0.30;99.90
19279;DHT22;9773;47.062;15.446;2022-12-18T17:06:39;-0.20;99.90
19279;DHT22;9773;47.062;15.446;2022-12-18T17:09:09;-0.20;99.90
19279;DHT22;9773;47.062;15.446;2022-12-18T17:11:36;-0.20;99.90
19279;DHT22;9773;47.062;15.446;2022-12-18T17:14:17;-0.30;99.90
19279;DHT22;9773;47.062;15.446;2022-12-18T17:16:45;-0.30;99.90
19279;DHT22;9773;47.062;15.446;2022-12-18T17:19:12;-0.40;99.90
19279;DHT22;9773;47.062;15.446;2022-12-18T17:21:38;-0.30;99.90
19279;DHT22;9773;47.062;15.446;2022-12-18T17:24:05;-0.30;99.90
19279;DHT22;9773;47.062;15.446;2022-12-18T17:26:35;-0.30;99.90
19279;DHT22;9773;47.062;15.446;2022-12-18T17:29:01;-0.30;99.90
19279;DHT22;9773;47.062;15.446;2022-12-18T17:31:28;-0.30;99.90
19279;DHT22;9773;47.062;15.446;2022-12-18T17:33:55;-0.30;99.90
19279;DHT22;9773;47.062;15.446;2022-12-18T17:36:22;-0.20;99.90
19279;DHT22;9773;47.062;15.446;2022-12-18T17:38:52;-0.20;99.90
19279;DHT22;9773;47.062;15.446;2022-12-18T17:41:19;-0.10;99.90
19279;DHT22;9773;47.062;15.446;2022-12-18T17:43:57;-0.10;99.90